sensor_id;sensor_type;location;lat;lon;timestamp;P1;durP1;ratioP1;P2;durP2;ratioP2
18649;SDS011;9454;53.516;10.478;2023-12-04T00:00:06;15.75;;;6.45;;
18649;SDS011;9454;53.516;10.478;2023-12-04T00:03:13;20.55;;;7.00;;
18649;SDS011;9454;53.516;10.478;2023-12-04T00:06:17;20.42;;;7.85;;
18649;SDS011;9454;53.516;10.478;2023-12-04T00:09:31;15.63;;;6.90;;
18649;SDS011;9454;53.516;10.478;2023-12-04T00:12:36;16.55;;;6.28;;
18649;SDS011;9454;53.516;10.478;2023-12-04T00:15:41;15.18;;;6.63;;
18649;SDS011;9454;53.516;10.478;2023-12-04T00:18:48;16.85;;;6.20;;
18649;SDS011;9454;53.516;10.478;2023-12-04T00:21:51;17.95;;;7.25;;
18649;SDS011;9454;53.516;10.478;2023-12-04T00:24:57;20.15;;;7.63;;
18649;SDS011;9454;53.516;10.478;2023-12-04T00:28:01;17.60;;;7.18;;
18649;SDS011;9454;53.516;10.478;2023-12-04T00:31:09;13.73;;;6.65;;
18649;SDS011;9454;53.516;10.478;2023-12-04T00:34:13;19.45;;;6.82;;
18649;SDS011;9454;53.516;10.478;2023-12-04T00:37:17;19.40;;;7.80;;
18649;SDS011;9454;53.516;10.478;2023-12-04T00:40:20;17.33;;;6.95;;
18649;SDS011;9454;53.516;10.478;2023-12-04T00:43:29;17.58;;;6.72;;
18649;SDS011;9454;53.516;10.478;2023-12-04T00:46:37;15.27;;;6.30;;
18649;SDS011;9454;53.516;10.478;2023-12-04T00:49:45;16.65;;;6.75;;
18649;SDS011;9454;53.516;10.478;2023-12-04T00:52:49;16.17;;;6.90;;
18649;SDS011;9454;53.516;10.478;2023-12-04T00:55:53;14.93;;;6.70;;
18649;SDS011;9454;53.516;10.478;2023-12-04T00:58:56;22.83;;;6.38;;
18649;SDS011;9454;53.516;10.478;2023-12-04T01:02:10;15.75;;;6.50;;
18649;SDS011;9454;53.516;10.478;2023-12-04T01:05:14;21.83;;;6.55;;
18649;SDS011;9454;53.516;10.478;2023-12-04T01:08:19;17.88;;;6.60;;
18649;SDS011;9454;53.516;10.478;2023-12-04T01:11:24;13.35;;;5.93;;
18649;SDS011;9454;53.516;10.478;2023-12-04T01:14:28;18.80;;;6.82;;
18649;SDS011;9454;53.516;10.478;2023-12-04T01:17:32;17.98;;;6.88;;
18649;SDS011;9454;53.516;10.478;2023-12-04T01:20:38;16.15;;;6.43;;
18649;SDS011;9454;53.516;10.478;2023-12-04T01:23:44;19.60;;;7.45;;
18649;SDS011;9454;53.516;10.478;2023-12-04T01:26:48;17.70;;;6.65;;
18649;SDS011;9454;53.516;10.478;2023-12-04T01:29:53;18.75;;;6.57;;
18649;SDS011;9454;53.516;10.478;2023-12-04T01:32:58;20.50;;;7.07;;
18649;SDS011;9454;53.516;10.478;2023-12-04T01:36:02;20.13;;;7.45;;
18649;SDS011;9454;53.516;10.478;2023-12-04T01:39:10;18.70;;;6.53;;
18649;SDS011;9454;53.516;10.478;2023-12-04T01:42:17;22.27;;;8.20;;
18649;SDS011;9454;53.516;10.478;2023-12-04T01:45:28;20.33;;;7.50;;
18649;SDS011;9454;53.516;10.478;2023-12-04T01:48:33;17.75;;;7.82;;
18649;SDS011;9454;53.516;10.478;2023-12-04T01:51:38;20.65;;;7.55;;
18649;SDS011;9454;53.516;10.478;2023-12-04T01:54:42;21.75;;;7.35;;
18649;SDS011;9454;53.516;10.478;2023-12-04T01:57:48;20.38;;;7.13;;
18649;SDS011;9454;53.516;10.478;2023-12-04T02:00:52;17.38;;;7.95;;
18649;SDS011;9454;53.516;10.478;2023-12-04T02:04:00;24.70;;;7.68;;
18649;SDS011;9454;53.516;10.478;2023-12-04T02:07:05;20.20;;;7.72;;
18649;SDS011;9454;53.516;10.478;2023-12-04T02:10:11;20.25;;;6.88;;
18649;SDS011;9454;53.516;10.478;2023-12-04T02:13:14;20.88;;;8.13;;
18649;SDS011;9454;53.516;10.478;2023-12-04T02:16:18;19.02;;;8.15;;
18649;SDS011;9454;53.516;10.478;2023-12-04T02:19:24;20.98;;;7.18;;
18649;SDS011;9454;53.516;10.478;2023-12-04T02:22:29;20.65;;;7.63;;
18649;SDS011;9454;53.516;10.478;2023-12-04T02:25:38;20.60;;;7.68;;
18649;SDS011;9454;53.516;10.478;2023-12-04T02:28:41;25.88;;;8.05;;
18649;SDS011;9454;53.516;10.478;2023-12-04T02:31:49;17.80;;;7.50;;
18649;SDS011;9454;53.516;10.478;2023-12-04T02:34:54;21.65;;;7.85;;
18649;SDS011;9454;53.516;10.478;2023-12-04T02:38:01;17.98;;;7.35;;
18649;SDS011;9454;53.516;10.478;2023-12-04T02:41:07;28.77;;;7.82;;
18649;SDS011;9454;53.516;10.478;2023-12-04T02:44:11;22.30;;;8.07;;
18649;SDS011;9454;53.516;10.478;2023-12-04T02:47:18;23.05;;;7.68;;
18649;SDS011;9454;53.516;10.478;2023-12-04T02:50:22;20.27;;;8.52;;
18649;SDS011;9454;53.516;10.478;2023-12-04T02:53:26;21.90;;;7.07;;
18649;SDS011;9454;53.516;10.478;2023-12-04T02:56:35;26.15;;;7.65;;
18649;SDS011;9454;53.516;10.478;2023-12-04T02:59:38;24.13;;;7.45;;
18649;SDS011;9454;53.516;10.478;2023-12-04T03:02:42;23.45;;;7.45;;
18649;SDS011;9454;53.516;10.478;2023-12-04T03:05:46;18.67;;;7.93;;
18649;SDS011;9454;53.516;10.478;2023-12-04T03:08:50;16.40;;;7.85;;
18649;SDS011;9454;53.516;10.478;2023-12-04T03:11:56;21.25;;;7.45;;
18649;SDS011;9454;53.516;10.478;2023-12-04T03:15:00;22.88;;;7.25;;
18649;SDS011;9454;53.516;10.478;2023-12-04T03:18:10;19.25;;;7.25;;
18649;SDS011;9454;53.516;10.478;2023-12-04T03:21:14;21.08;;;8.15;;
18649;SDS011;9454;53.516;10.478;2023-12-04T03:24:18;23.10;;;7.10;;
18649;SDS011;9454;53.516;10.478;2023-12-04T03:27:23;18.98;;;7.35;;
18649;SDS011;9454;53.516;10.478;2023-12-04T03:30:27;22.38;;;8.07;;
18649;SDS011;9454;53.516;10.478;2023-12-04T03:33:32;27.58;;;8.05;;
18649;SDS011;9454;53.516;10.478;2023-12-04T03:36:37;20.00;;;8.27;;
18649;SDS011;9454;53.516;10.478;2023-12-04T03:39:44;21.45;;;8.05;;
18649;SDS011;9454;53.516;10.478;2023-12-04T03:42:55;22.08;;;7.75;;
18649;SDS011;9454;53.516;10.478;2023-12-04T03:45:58;28.67;;;8.50;;
18649;SDS011;9454;53.516;10.478;2023-12-04T03:49:03;17.33;;;7.32;;
18649;SDS011;9454;53.516;10.478;2023-12-04T03:52:06;23.42;;;8.65;;
18649;SDS011;9454;53.516;10.478;2023-12-04T03:55:11;24.50;;;7.38;;
18649;SDS011;9454;53.516;10.478;2023-12-04T03:58:16;19.80;;;6.82;;
18649;SDS011;9454;53.516;10.478;2023-12-04T04:01:24;27.02;;;9.30;;
18649;SDS011;9454;53.516;10.478;2023-12-04T04:04:28;24.70;;;8.70;;
18649;SDS011;9454;53.516;10.478;2023-12-04T04:07:32;19.55;;;7.57;;
18649;SDS011;9454;53.516;10.478;2023-12-04T04:10:37;21.30;;;8.07;;
18649;SDS011;9454;53.516;10.478;2023-12-04T04:13:45;23.05;;;8.45;;
18649;SDS011;9454;53.516;10.478;2023-12-04T04:16:49;22.13;;;6.97;;
18649;SDS011;9454;53.516;10.478;2023-12-04T04:20:02;26.33;;;9.07;;
18649;SDS011;9454;53.516;10.478;2023-12-04T04:23:06;21.85;;;7.20;;
18649;SDS011;9454;53.516;10.478;2023-12-04T04:26:10;19.67;;;8.20;;
18649;SDS011;9454;53.516;10.478;2023-12-04T04:29:15;23.33;;;7.50;;
18649;SDS011;9454;53.516;10.478;2023-12-04T04:32:20;21.63;;;7.88;;
18649;SDS011;9454;53.516;10.478;2023-12-04T04:35:24;26.92;;;8.35;;
18649;SDS011;9454;53.516;10.478;2023-12-04T04:38:31;22.70;;;7.78;;
18649;SDS011;9454;53.516;10.478;2023-12-04T04:41:35;24.45;;;9.15;;
18649;SDS011;9454;53.516;10.478;2023-12-04T04:44:41;23.00;;;7.93;;
18649;SDS011;9454;53.516;10.478;2023-12-04T04:47:44;25.58;;;7.90;;
18649;SDS011;9454;53.516;10.478;2023-12-04T04:50:52;25.67;;;9.05;;
18649;SDS011;9454;53.516;10.478;2023-12-04T04:53:56;17.45;;;7.32;;
18649;SDS011;9454;53.516;10.478;2023-12-04T04:57:00;26.45;;;8.77;;
18649;SDS011;9454;53.516;10.478;2023-12-04T05:00:12;15.32;;;6.57;;
18649;SDS011;9454;53.516;10.478;2023-12-04T05:03:17;18.92;;;7.85;;
18649;SDS011;9454;53.516;10.478;2023-12-04T05:06:22;22.42;;;8.52;;
18649;SDS011;9454;53.516;10.478;2023-12-04T05:09:28;25.67;;;8.82;;
18649;SDS011;9454;53.516;10.478;2023-12-04T05:12:32;24.73;;;8.73;;
18649;SDS011;9454;53.516;10.478;2023-12-04T05:15:40;32.53;;;9.00;;
18649;SDS011;9454;53.516;10.478;2023-12-04T05:18:43;23.13;;;8.52;;
18649;SDS011;9454;53.516;10.478;2023-12-04T05:21:51;18.70;;;8.00;;
18649;SDS011;9454;53.516;10.478;2023-12-04T05:24:55;20.97;;;8.77;;
18649;SDS011;9454;53.516;10.478;2023-12-04T05:28:00;27.10;;;7.95;;
18649;SDS011;9454;53.516;10.478;2023-12-04T05:31:09;25.85;;;9.35;;
18649;SDS011;9454;53.516;10.478;2023-12-04T05:34:20;23.52;;;8.25;;
18649;SDS011;9454;53.516;10.478;2023-12-04T05:37:23;21.90;;;8.68;;
18649;SDS011;9454;53.516;10.478;2023-12-04T05:40:27;29.67;;;9.95;;
18649;SDS011;9454;53.516;10.478;2023-12-04T05:43:31;20.50;;;8.50;;
18649;SDS011;9454;53.516;10.478;2023-12-04T05:46:39;25.10;;;9.15;;
18649;SDS011;9454;53.516;10.478;2023-12-04T05:49:42;22.60;;;8.65;;
18649;SDS011;9454;53.516;10.478;2023-12-04T05:52:47;26.27;;;9.95;;
18649;SDS011;9454;53.516;10.478;2023-12-04T05:55:52;19.85;;;8.10;;
18649;SDS011;9454;53.516;10.478;2023-12-04T05:58:56;24.70;;;8.38;;
18649;SDS011;9454;53.516;10.478;2023-12-04T06:02:01;24.83;;;9.05;;
18649;SDS011;9454;53.516;10.478;2023-12-04T06:05:05;24.70;;;9.18;;
18649;SDS011;9454;53.516;10.478;2023-12-04T06:08:09;37.95;;;9.25;;
18649;SDS011;9454;53.516;10.478;2023-12-04T06:11:13;25.38;;;9.93;;
18649;SDS011;9454;53.516;10.478;2023-12-04T06:14:16;29.80;;;8.65;;
18649;SDS011;9454;53.516;10.478;2023-12-04T06:17:23;25.48;;;9.38;;
18649;SDS011;9454;53.516;10.478;2023-12-04T06:20:26;27.17;;;10.30;;
18649;SDS011;9454;53.516;10.478;2023-12-04T06:23:31;24.90;;;8.10;;
18649;SDS011;9454;53.516;10.478;2023-12-04T06:26:36;25.70;;;10.48;;
18649;SDS011;9454;53.516;10.478;2023-12-04T06:29:43;25.10;;;8.50;;
18649;SDS011;9454;53.516;10.478;2023-12-04T06:32:58;23.20;;;8.05;;
18649;SDS011;9454;53.516;10.478;2023-12-04T06:36:06;24.35;;;9.13;;
18649;SDS011;9454;53.516;10.478;2023-12-04T06:39:11;32.00;;;10.13;;
18649;SDS011;9454;53.516;10.478;2023-12-04T06:42:15;26.30;;;9.10;;
18649;SDS011;9454;53.516;10.478;2023-12-04T06:45:21;20.63;;;7.90;;
18649;SDS011;9454;53.516;10.478;2023-12-04T06:48:31;25.10;;;8.80;;
18649;SDS011;9454;53.516;10.478;2023-12-04T06:51:35;26.40;;;9.17;;
18649;SDS011;9454;53.516;10.478;2023-12-04T06:54:38;26.60;;;9.30;;
18649;SDS011;9454;53.516;10.478;2023-12-04T06:57:44;19.38;;;8.52;;
18649;SDS011;9454;53.516;10.478;2023-12-04T07:00:48;25.35;;;9.13;;
18649;SDS011;9454;53.516;10.478;2023-12-04T07:03:53;22.60;;;8.48;;
18649;SDS011;9454;53.516;10.478;2023-12-04T07:06:57;26.95;;;8.63;;
18649;SDS011;9454;53.516;10.478;2023-12-04T07:10:07;21.27;;;8.48;;
18649;SDS011;9454;53.516;10.478;2023-12-04T07:13:10;28.70;;;9.68;;
18649;SDS011;9454;53.516;10.478;2023-12-04T07:16:20;24.95;;;9.02;;
18649;SDS011;9454;53.516;10.478;2023-12-04T07:19:25;23.33;;;8.23;;
18649;SDS011;9454;53.516;10.478;2023-12-04T07:22:31;23.13;;;9.60;;
18649;SDS011;9454;53.516;10.478;2023-12-04T07:25:39;25.25;;;8.55;;
18649;SDS011;9454;53.516;10.478;2023-12-04T07:28:45;21.20;;;8.60;;
18649;SDS011;9454;53.516;10.478;2023-12-04T07:31:52;18.80;;;7.15;;
18649;SDS011;9454;53.516;10.478;2023-12-04T07:34:57;24.15;;;8.75;;
18649;SDS011;9454;53.516;10.478;2023-12-04T07:38:01;14.77;;;5.82;;
18649;SDS011;9454;53.516;10.478;2023-12-04T07:41:07;22.42;;;7.97;;
18649;SDS011;9454;53.516;10.478;2023-12-04T07:44:13;26.23;;;9.23;;
18649;SDS011;9454;53.516;10.478;2023-12-04T07:47:17;23.92;;;7.70;;
18649;SDS011;9454;53.516;10.478;2023-12-04T07:50:22;21.85;;;8.75;;
18649;SDS011;9454;53.516;10.478;2023-12-04T07:53:26;21.65;;;8.30;;
18649;SDS011;9454;53.516;10.478;2023-12-04T07:56:34;22.48;;;8.57;;
18649;SDS011;9454;53.516;10.478;2023-12-04T07:59:39;20.75;;;7.03;;
18649;SDS011;9454;53.516;10.478;2023-12-04T08:02:45;26.98;;;8.52;;
18649;SDS011;9454;53.516;10.478;2023-12-04T08:05:52;23.13;;;8.95;;
18649;SDS011;9454;53.516;10.478;2023-12-04T08:08:56;22.65;;;8.10;;
18649;SDS011;9454;53.516;10.478;2023-12-04T08:12:00;22.05;;;8.13;;
18649;SDS011;9454;53.516;10.478;2023-12-04T08:15:05;22.67;;;8.48;;
18649;SDS011;9454;53.516;10.478;2023-12-04T08:18:09;22.10;;;9.25;;
18649;SDS011;9454;53.516;10.478;2023-12-04T08:21:15;22.75;;;8.13;;
18649;SDS011;9454;53.516;10.478;2023-12-04T08:24:22;21.73;;;7.13;;
18649;SDS011;9454;53.516;10.478;2023-12-04T08:27:26;25.52;;;8.18;;
18649;SDS011;9454;53.516;10.478;2023-12-04T08:30:30;21.77;;;9.23;;
18649;SDS011;9454;53.516;10.478;2023-12-04T08:33:39;19.00;;;8.18;;
18649;SDS011;9454;53.516;10.478;2023-12-04T08:36:45;20.88;;;9.52;;
18649;SDS011;9454;53.516;10.478;2023-12-04T08:39:58;18.15;;;7.53;;
18649;SDS011;9454;53.516;10.478;2023-12-04T08:43:02;15.80;;;4.68;;
18649;SDS011;9454;53.516;10.478;2023-12-04T08:46:06;21.95;;;8.80;;
18649;SDS011;9454;53.516;10.478;2023-12-04T08:49:12;15.32;;;6.05;;
18649;SDS011;9454;53.516;10.478;2023-12-04T08:52:18;27.95;;;8.40;;
18649;SDS011;9454;53.516;10.478;2023-12-04T08:55:23;27.60;;;9.25;;
18649;SDS011;9454;53.516;10.478;2023-12-04T08:58:28;20.70;;;8.48;;
18649;SDS011;9454;53.516;10.478;2023-12-04T09:01:32;23.15;;;8.98;;
18649;SDS011;9454;53.516;10.478;2023-12-04T09:04:36;19.17;;;7.93;;
18649;SDS011;9454;53.516;10.478;2023-12-04T09:07:44;23.67;;;9.05;;
18649;SDS011;9454;53.516;10.478;2023-12-04T09:10:51;20.63;;;7.85;;
18649;SDS011;9454;53.516;10.478;2023-12-04T09:14:15;21.55;;;8.50;;
18649;SDS011;9454;53.516;10.478;2023-12-04T09:17:18;17.63;;;6.40;;
18649;SDS011;9454;53.516;10.478;2023-12-04T09:20:32;23.80;;;7.88;;
18649;SDS011;9454;53.516;10.478;2023-12-04T09:23:40;22.27;;;8.52;;
18649;SDS011;9454;53.516;10.478;2023-12-04T09:26:50;22.75;;;8.88;;
18649;SDS011;9454;53.516;10.478;2023-12-04T09:29:57;22.92;;;8.07;;
18649;SDS011;9454;53.516;10.478;2023-12-04T09:33:03;18.65;;;7.97;;
18649;SDS011;9454;53.516;10.478;2023-12-04T09:36:09;20.92;;;8.57;;
18649;SDS011;9454;53.516;10.478;2023-12-04T09:39:18;20.38;;;8.68;;
18649;SDS011;9454;53.516;10.478;2023-12-04T09:42:21;21.52;;;7.78;;
18649;SDS011;9454;53.516;10.478;2023-12-04T09:45:26;25.33;;;8.43;;
18649;SDS011;9454;53.516;10.478;2023-12-04T09:48:31;23.30;;;8.40;;
18649;SDS011;9454;53.516;10.478;2023-12-04T09:51:41;23.45;;;9.15;;
18649;SDS011;9454;53.516;10.478;2023-12-04T09:54:47;19.42;;;7.95;;
18649;SDS011;9454;53.516;10.478;2023-12-04T09:57:52;18.48;;;8.18;;
18649;SDS011;9454;53.516;10.478;2023-12-04T10:00:56;20.98;;;7.97;;
18649;SDS011;9454;53.516;10.478;2023-12-04T10:04:00;19.60;;;7.50;;
18649;SDS011;9454;53.516;10.478;2023-12-04T10:07:06;17.70;;;6.97;;
18649;SDS011;9454;53.516;10.478;2023-12-04T10:10:24;21.52;;;8.73;;
18649;SDS011;9454;53.516;10.478;2023-12-04T10:13:29;17.30;;;7.10;;
18649;SDS011;9454;53.516;10.478;2023-12-04T10:16:53;20.00;;;7.07;;
18649;SDS011;9454;53.516;10.478;2023-12-04T10:20:03;22.20;;;8.68;;
18649;SDS011;9454;53.516;10.478;2023-12-04T10:23:17;19.25;;;7.97;;
18649;SDS011;9454;53.516;10.478;2023-12-04T10:26:24;21.98;;;8.38;;
18649;SDS011;9454;53.516;10.478;2023-12-04T10:29:29;23.98;;;8.07;;
18649;SDS011;9454;53.516;10.478;2023-12-04T10:32:35;18.80;;;7.63;;
18649;SDS011;9454;53.516;10.478;2023-12-04T10:35:40;23.08;;;8.32;;
18649;SDS011;9454;53.516;10.478;2023-12-04T10:38:45;19.73;;;8.73;;
18649;SDS011;9454;53.516;10.478;2023-12-04T10:42:01;23.25;;;8.50;;
18649;SDS011;9454;53.516;10.478;2023-12-04T10:45:07;19.38;;;7.95;;
18649;SDS011;9454;53.516;10.478;2023-12-04T10:48:11;22.30;;;8.07;;
18649;SDS011;9454;53.516;10.478;2023-12-04T10:51:15;24.05;;;8.57;;
18649;SDS011;9454;53.516;10.478;2023-12-04T10:54:30;18.75;;;7.55;;
18649;SDS011;9454;53.516;10.478;2023-12-04T10:57:37;22.60;;;9.15;;
18649;SDS011;9454;53.516;10.478;2023-12-04T11:00:45;18.10;;;8.00;;
18649;SDS011;9454;53.516;10.478;2023-12-04T11:03:51;18.08;;;6.93;;
18649;SDS011;9454;53.516;10.478;2023-12-04T11:06:59;18.08;;;6.88;;
18649;SDS011;9454;53.516;10.478;2023-12-04T11:10:08;20.10;;;8.10;;
18649;SDS011;9454;53.516;10.478;2023-12-04T11:13:17;21.40;;;8.75;;
18649;SDS011;9454;53.516;10.478;2023-12-04T11:16:22;18.90;;;7.32;;
18649;SDS011;9454;53.516;10.478;2023-12-04T11:19:37;23.40;;;8.15;;
18649;SDS011;9454;53.516;10.478;2023-12-04T11:26:45;18.55;;;7.63;;
18649;SDS011;9454;53.516;10.478;2023-12-04T11:29:51;21.83;;;8.35;;
18649;SDS011;9454;53.516;10.478;2023-12-04T11:32:59;20.33;;;7.80;;
18649;SDS011;9454;53.516;10.478;2023-12-04T11:36:09;19.60;;;8.10;;
18649;SDS011;9454;53.516;10.478;2023-12-04T11:39:15;19.17;;;8.00;;
18649;SDS011;9454;53.516;10.478;2023-12-04T11:42:19;15.00;;;6.13;;
18649;SDS011;9454;53.516;10.478;2023-12-04T11:45:28;18.40;;;6.65;;
18649;SDS011;9454;53.516;10.478;2023-12-04T11:48:36;16.67;;;7.53;;
18649;SDS011;9454;53.516;10.478;2023-12-04T11:51:46;20.70;;;8.00;;
18649;SDS011;9454;53.516;10.478;2023-12-04T11:54:56;17.98;;;7.88;;
18649;SDS011;9454;53.516;10.478;2023-12-04T11:58:01;14.43;;;5.95;;
18649;SDS011;9454;53.516;10.478;2023-12-04T12:01:16;17.13;;;7.97;;
18649;SDS011;9454;53.516;10.478;2023-12-04T12:04:25;21.25;;;6.60;;
18649;SDS011;9454;53.516;10.478;2023-12-04T12:07:33;21.77;;;6.57;;
18649;SDS011;9454;53.516;10.478;2023-12-04T12:10:38;15.45;;;6.53;;
18649;SDS011;9454;53.516;10.478;2023-12-04T12:13:45;17.63;;;7.28;;
18649;SDS011;9454;53.516;10.478;2023-12-04T12:16:52;19.65;;;7.50;;
18649;SDS011;9454;53.516;10.478;2023-12-04T12:19:57;18.67;;;7.40;;
18649;SDS011;9454;53.516;10.478;2023-12-04T12:23:01;19.42;;;7.13;;
18649;SDS011;9454;53.516;10.478;2023-12-04T12:26:07;16.60;;;7.63;;
18649;SDS011;9454;53.516;10.478;2023-12-04T12:29:14;19.40;;;7.20;;
18649;SDS011;9454;53.516;10.478;2023-12-04T12:32:22;19.55;;;7.78;;
18649;SDS011;9454;53.516;10.478;2023-12-04T12:35:26;16.52;;;7.18;;
18649;SDS011;9454;53.516;10.478;2023-12-04T12:38:30;17.85;;;6.47;;
18649;SDS011;9454;53.516;10.478;2023-12-04T12:41:37;16.95;;;7.25;;
18649;SDS011;9454;53.516;10.478;2023-12-04T12:44:41;18.77;;;7.85;;
18649;SDS011;9454;53.516;10.478;2023-12-04T12:47:51;13.93;;;6.57;;
18649;SDS011;9454;53.516;10.478;2023-12-04T12:50:58;19.13;;;6.35;;
18649;SDS011;9454;53.516;10.478;2023-12-04T12:54:02;19.13;;;7.28;;
18649;SDS011;9454;53.516;10.478;2023-12-04T12:57:06;16.23;;;6.20;;
18649;SDS011;9454;53.516;10.478;2023-12-04T13:00:11;17.77;;;7.35;;
18649;SDS011;9454;53.516;10.478;2023-12-04T13:03:18;19.48;;;8.23;;
18649;SDS011;9454;53.516;10.478;2023-12-04T13:06:22;17.90;;;6.18;;
18649;SDS011;9454;53.516;10.478;2023-12-04T13:09:30;19.10;;;7.13;;
18649;SDS011;9454;53.516;10.478;2023-12-04T13:12:34;15.00;;;7.35;;
18649;SDS011;9454;53.516;10.478;2023-12-04T13:15:37;15.43;;;5.97;;
18649;SDS011;9454;53.516;10.478;2023-12-04T13:18:44;17.17;;;6.68;;
18649;SDS011;9454;53.516;10.478;2023-12-04T13:21:51;15.10;;;6.28;;
18649;SDS011;9454;53.516;10.478;2023-12-04T13:24:56;14.75;;;6.32;;
18649;SDS011;9454;53.516;10.478;2023-12-04T13:28:04;16.88;;;6.53;;
18649;SDS011;9454;53.516;10.478;2023-12-04T13:31:20;17.67;;;6.95;;
18649;SDS011;9454;53.516;10.478;2023-12-04T13:34:28;16.52;;;5.50;;
18649;SDS011;9454;53.516;10.478;2023-12-04T13:37:34;17.92;;;6.95;;
18649;SDS011;9454;53.516;10.478;2023-12-04T13:40:41;17.92;;;6.70;;
18649;SDS011;9454;53.516;10.478;2023-12-04T13:44:10;15.10;;;6.47;;
18649;SDS011;9454;53.516;10.478;2023-12-04T13:47:17;16.55;;;6.53;;
18649;SDS011;9454;53.516;10.478;2023-12-04T13:50:22;12.98;;;6.03;;
18649;SDS011;9454;53.516;10.478;2023-12-04T13:53:26;13.77;;;5.72;;
18649;SDS011;9454;53.516;10.478;2023-12-04T13:56:33;14.65;;;5.72;;
18649;SDS011;9454;53.516;10.478;2023-12-04T13:59:47;14.35;;;6.18;;
18649;SDS011;9454;53.516;10.478;2023-12-04T14:02:51;18.55;;;7.05;;
18649;SDS011;9454;53.516;10.478;2023-12-04T14:06:08;16.20;;;5.78;;
18649;SDS011;9454;53.516;10.478;2023-12-04T14:09:17;14.77;;;6.45;;
18649;SDS011;9454;53.516;10.478;2023-12-04T14:12:24;14.80;;;5.63;;
18649;SDS011;9454;53.516;10.478;2023-12-04T14:15:36;14.25;;;5.78;;
18649;SDS011;9454;53.516;10.478;2023-12-04T14:19:03;11.15;;;5.47;;
18649;SDS011;9454;53.516;10.478;2023-12-04T14:22:08;14.88;;;6.40;;
18649;SDS011;9454;53.516;10.478;2023-12-04T14:25:12;16.73;;;5.97;;
18649;SDS011;9454;53.516;10.478;2023-12-04T14:28:18;15.50;;;6.22;;
18649;SDS011;9454;53.516;10.478;2023-12-04T14:31:36;15.38;;;5.50;;
18649;SDS011;9454;53.516;10.478;2023-12-04T14:34:42;11.90;;;5.10;;
18649;SDS011;9454;53.516;10.478;2023-12-04T14:37:59;15.85;;;6.43;;
18649;SDS011;9454;53.516;10.478;2023-12-04T14:41:02;15.05;;;6.03;;
18649;SDS011;9454;53.516;10.478;2023-12-04T14:44:07;13.23;;;6.30;;
18649;SDS011;9454;53.516;10.478;2023-12-04T14:47:11;11.85;;;5.50;;
18649;SDS011;9454;53.516;10.478;2023-12-04T14:50:22;16.23;;;5.88;;
18649;SDS011;9454;53.516;10.478;2023-12-04T14:53:28;15.07;;;6.72;;
18649;SDS011;9454;53.516;10.478;2023-12-04T14:56:43;16.58;;;5.90;;
18649;SDS011;9454;53.516;10.478;2023-12-04T15:00:04;10.88;;;4.32;;
18649;SDS011;9454;53.516;10.478;2023-12-04T15:03:42;15.93;;;5.45;;
18649;SDS011;9454;53.516;10.478;2023-12-04T15:07:06;11.98;;;4.93;;
18649;SDS011;9454;53.516;10.478;2023-12-04T15:10:39;12.30;;;5.35;;
18649;SDS011;9454;53.516;10.478;2023-12-04T15:14:05;13.07;;;5.20;;
18649;SDS011;9454;53.516;10.478;2023-12-04T15:17:21;14.13;;;6.03;;
18649;SDS011;9454;53.516;10.478;2023-12-04T15:20:33;11.65;;;5.20;;
18649;SDS011;9454;53.516;10.478;2023-12-04T15:23:44;10.02;;;5.32;;
18649;SDS011;9454;53.516;10.478;2023-12-04T15:26:52;10.52;;;4.93;;
18649;SDS011;9454;53.516;10.478;2023-12-04T15:29:56;15.40;;;5.28;;
18649;SDS011;9454;53.516;10.478;2023-12-04T15:33:00;15.93;;;6.10;;
18649;SDS011;9454;53.516;10.478;2023-12-04T15:36:06;19.02;;;7.32;;
18649;SDS011;9454;53.516;10.478;2023-12-04T15:39:12;11.15;;;5.65;;
18649;SDS011;9454;53.516;10.478;2023-12-04T15:42:17;14.70;;;6.18;;
18649;SDS011;9454;53.516;10.478;2023-12-04T15:45:24;15.95;;;6.90;;
18649;SDS011;9454;53.516;10.478;2023-12-04T15:48:28;19.60;;;8.80;;
18649;SDS011;9454;53.516;10.478;2023-12-04T15:51:32;17.15;;;7.60;;
18649;SDS011;9454;53.516;10.478;2023-12-04T15:54:35;13.65;;;6.50;;
18649;SDS011;9454;53.516;10.478;2023-12-04T15:57:41;11.77;;;4.95;;
18649;SDS011;9454;53.516;10.478;2023-12-04T16:00:43;11.18;;;4.03;;
18649;SDS011;9454;53.516;10.478;2023-12-04T16:03:48;8.38;;;4.00;;
18649;SDS011;9454;53.516;10.478;2023-12-04T16:06:52;11.85;;;4.32;;
18649;SDS011;9454;53.516;10.478;2023-12-04T16:09:57;8.50;;;4.32;;
18649;SDS011;9454;53.516;10.478;2023-12-04T16:13:02;10.88;;;4.72;;
18649;SDS011;9454;53.516;10.478;2023-12-04T16:16:06;8.32;;;4.32;;
18649;SDS011;9454;53.516;10.478;2023-12-04T16:19:13;9.45;;;3.80;;
18649;SDS011;9454;53.516;10.478;2023-12-04T16:26:44;11.82;;;4.38;;
18649;SDS011;9454;53.516;10.478;2023-12-04T16:29:55;8.00;;;2.88;;
18649;SDS011;9454;53.516;10.478;2023-12-04T16:33:00;9.70;;;4.38;;
18649;SDS011;9454;53.516;10.478;2023-12-04T16:36:07;8.82;;;4.63;;
18649;SDS011;9454;53.516;10.478;2023-12-04T16:39:14;8.57;;;3.88;;
18649;SDS011;9454;53.516;10.478;2023-12-04T16:42:22;7.70;;;3.30;;
18649;SDS011;9454;53.516;10.478;2023-12-04T16:45:34;8.75;;;4.15;;
18649;SDS011;9454;53.516;10.478;2023-12-04T16:48:38;11.57;;;3.63;;
18649;SDS011;9454;53.516;10.478;2023-12-04T16:51:42;10.07;;;4.28;;
18649;SDS011;9454;53.516;10.478;2023-12-04T16:54:47;4.97;;;2.78;;
18649;SDS011;9454;53.516;10.478;2023-12-04T16:57:53;11.07;;;4.40;;
18649;SDS011;9454;53.516;10.478;2023-12-04T17:01:03;7.35;;;3.33;;
18649;SDS011;9454;53.516;10.478;2023-12-04T17:09:29;9.38;;;3.63;;
18649;SDS011;9454;53.516;10.478;2023-12-04T17:12:47;7.35;;;3.20;;
18649;SDS011;9454;53.516;10.478;2023-12-04T17:15:57;6.15;;;3.17;;
18649;SDS011;9454;53.516;10.478;2023-12-04T17:19:02;5.68;;;3.05;;
18649;SDS011;9454;53.516;10.478;2023-12-04T17:22:06;7.95;;;3.55;;
18649;SDS011;9454;53.516;10.478;2023-12-04T17:25:12;6.97;;;3.38;;
18649;SDS011;9454;53.516;10.478;2023-12-04T17:28:38;5.63;;;2.28;;
18649;SDS011;9454;53.516;10.478;2023-12-04T17:31:41;8.18;;;3.50;;
18649;SDS011;9454;53.516;10.478;2023-12-04T17:34:48;8.00;;;3.72;;
18649;SDS011;9454;53.516;10.478;2023-12-04T17:37:51;10.60;;;4.07;;
18649;SDS011;9454;53.516;10.478;2023-12-04T17:40:58;9.52;;;3.55;;
18649;SDS011;9454;53.516;10.478;2023-12-04T17:44:02;9.10;;;3.88;;
18649;SDS011;9454;53.516;10.478;2023-12-04T17:47:09;7.90;;;3.63;;
18649;SDS011;9454;53.516;10.478;2023-12-04T17:50:15;6.82;;;2.92;;
18649;SDS011;9454;53.516;10.478;2023-12-04T17:53:21;9.40;;;3.53;;
18649;SDS011;9454;53.516;10.478;2023-12-04T17:56:25;8.90;;;3.63;;
18649;SDS011;9454;53.516;10.478;2023-12-04T17:59:29;9.88;;;3.67;;
18649;SDS011;9454;53.516;10.478;2023-12-04T18:02:33;5.03;;;2.40;;
18649;SDS011;9454;53.516;10.478;2023-12-04T18:05:41;5.82;;;2.97;;
18649;SDS011;9454;53.516;10.478;2023-12-04T18:08:48;4.20;;;2.60;;
18649;SDS011;9454;53.516;10.478;2023-12-04T18:11:52;8.95;;;3.55;;
18649;SDS011;9454;53.516;10.478;2023-12-04T18:14:58;8.25;;;3.35;;
18649;SDS011;9454;53.516;10.478;2023-12-04T18:18:02;7.45;;;3.28;;
18649;SDS011;9454;53.516;10.478;2023-12-04T18:21:09;9.98;;;2.55;;
18649;SDS011;9454;53.516;10.478;2023-12-04T18:24:15;7.15;;;2.88;;
18649;SDS011;9454;53.516;10.478;2023-12-04T18:27:19;14.10;;;4.25;;
18649;SDS011;9454;53.516;10.478;2023-12-04T18:30:23;6.78;;;3.72;;
18649;SDS011;9454;53.516;10.478;2023-12-04T18:33:30;9.02;;;3.50;;
18649;SDS011;9454;53.516;10.478;2023-12-04T18:36:38;8.02;;;3.55;;
18649;SDS011;9454;53.516;10.478;2023-12-04T18:39:46;7.15;;;3.75;;
18649;SDS011;9454;53.516;10.478;2023-12-04T18:42:51;9.13;;;4.00;;